createdAt,value
2023-04-20T00:04:41.577Z,6.8
2023-04-20T00:19:41.588Z,6.6
2023-04-20T00:34:41.584Z,6.2
2023-04-20T00:49:41.578Z,6
2023-04-20T01:04:41.583Z,5.8
2023-04-20T01:19:41.567Z,5.6
2023-04-20T01:34:41.576Z,5.6
2023-04-20T01:49:41.526Z,5.4
2023-04-20T02:04:41.491Z,5.4
2023-04-20T02:19:41.583Z,5.3
2023-04-20T02:34:41.595Z,5.3
2023-04-20T02:49:41.558Z,5.4
2023-04-20T03:04:41.586Z,5.4
2023-04-20T03:19:41.573Z,5.4
2023-04-20T03:34:41.566Z,5.4
2023-04-20T03:49:41.582Z,5.3
2023-04-20T04:04:41.609Z,5.2
2023-04-20T04:19:41.585Z,5.2
2023-04-20T04:34:41.572Z,5.2
2023-04-20T04:49:41.580Z,4.9
2023-04-20T05:04:41.669Z,4.6
2023-04-20T05:19:41.536Z,4.2
2023-04-20T05:34:41.584Z,4.4
2023-04-20T05:49:41.594Z,4.4
2023-04-20T06:04:41.693Z,4.2
2023-04-20T06:19:41.483Z,4.1
2023-04-20T06:34:41.504Z,4.2
2023-04-20T06:49:41.572Z,4.6
2023-04-20T07:04:41.618Z,4.9
2023-04-20T07:19:41.593Z,5.4
2023-04-20T07:34:41.549Z,5.6
2023-04-20T07:49:41.573Z,5.5
2023-04-20T08:04:41.799Z,5.4
2023-04-20T08:19:42.392Z,5.3
2023-04-20T08:34:41.601Z,5.2
2023-04-20T08:49:41.580Z,5.6
2023-04-20T09:04:41.597Z,5.8
2023-04-20T09:19:41.582Z,6.1
2023-04-20T09:34:41.616Z,6.3
2023-04-20T09:49:41.564Z,6.2
2023-04-20T10:04:41.638Z,6.2
2023-04-20T10:19:41.586Z,6
2023-04-20T10:34:41.580Z,6.4
2023-04-20T10:49:41.583Z,6.8
2023-04-20T11:04:41.585Z,7.1
2023-04-20T11:19:41.647Z,6.8
2023-04-20T11:34:41.828Z,5.9
2023-04-20T11:49:41.589Z,7.1
2023-04-20T12:04:41.733Z,7
2023-04-20T12:19:41.593Z,7.7
2023-04-20T12:34:41.471Z,8.2
2023-04-20T12:49:41.541Z,8.6
2023-04-20T13:04:41.571Z,8.2
2023-04-20T13:19:41.564Z,9.3
2023-04-20T13:34:41.588Z,10
2023-04-20T13:49:41.587Z,10.1
2023-04-20T14:04:41.629Z,10.5
2023-04-20T14:19:41.592Z,11.8
2023-04-20T14:34:41.570Z,12.1
2023-04-20T14:49:41.593Z,13.4
2023-04-20T15:04:41.840Z,14.1
2023-04-20T15:19:41.560Z,13.8
2023-04-20T15:34:41.554Z,14.5
2023-04-20T15:49:41.600Z,15.1
2023-04-20T16:04:41.707Z,12.8
2023-04-20T16:19:41.585Z,11.3
2023-04-20T16:34:41.495Z,-999
2023-04-20T16:49:41.476Z,-999
2023-04-20T17:04:41.479Z,-999
2023-04-20T17:19:41.480Z,-999
2023-04-20T17:34:41.474Z,-999
2023-04-20T17:49:41.467Z,-999
2023-04-20T18:04:41.525Z,-999
2023-04-20T18:19:41.496Z,-999
2023-04-20T18:34:41.460Z,-999
2023-04-20T18:49:41.497Z,-999
2023-04-20T19:04:41.463Z,-999
2023-04-20T19:19:41.437Z,-999
2023-04-20T19:34:41.485Z,-999
2023-04-20T19:49:41.454Z,-999
2023-04-20T20:04:41.527Z,-999
2023-04-20T20:19:41.476Z,-999
2023-04-20T20:34:41.455Z,-999
2023-04-20T20:49:41.461Z,-999
2023-04-20T21:04:41.472Z,-999
2023-04-20T21:19:41.446Z,-999
2023-04-20T21:34:41.449Z,-999
2023-04-20T21:49:41.465Z,-999
2023-04-20T22:04:41.654Z,-999
2023-04-20T22:19:41.447Z,-999
2023-04-20T22:34:41.462Z,-999
2023-04-20T22:49:41.463Z,-999
2023-04-20T23:04:41.472Z,-999
2023-04-20T23:19:41.474Z,-999
2023-04-20T23:34:41.468Z,-999
2023-04-20T23:49:41.481Z,-999
